^^
Grace C. Lehan Memorial Weather Station Historical Data
Daily Summary for February 5, 2022 Units:  Both    English   Metric
Daily Weekly Monthly Yearly
  High: Low: Average:
Temperature: 95 °F /  35 °C 74.9 °F /  23.8 °C 83.6 °F /  28.7 °C
Dew Point: 76 °F /  24.4 °C 69.4 °F /  20.8 °C 72.6 °F /  22.6 °C
Humidity: 87% 51.3% 71%
Wind Speed: 2.4mph /  3.9km/h - 0.1mph /  0.2km/h
Wind Gust: 7mph /  11.3km/h - -
Wind- - West
Pressure: 30.11 in /  1019.5 hPa 29.99 in /  1015.5 hPa -
Precipitation: 0.00 in /  0 mm    
 
 
Tabular Data for February 5, 2022
Time Temperature Dew Point Pressure Wind Wind Speed Wind Gust Humidity Rainfall Rate (Hourly) solar
00:09 79.8 °F /  26.6 °C 71.7 °F /  22.1 °C 30.01in /  1016.1hPa Calm     76.4% 0.00in /  0mm 0 W/m2
00:14 79.6 °F /  26.4 °C 71.8 °F /  22.1 °C 30.00in /  1015.8hPa Calm     77% 0.00in /  0mm 0 W/m2
00:19 79.5 °F /  26.4 °C 71.7 °F /  22.1 °C 30.00in /  1015.8hPa Calm     77% 0.00in /  0mm 0 W/m2
00:24 79.4 °F /  26.3 °C 72 °F /  22.2 °C 30.00in /  1015.8hPa Calm     78% 0.00in /  0mm 0 W/m2
00:29 79.3 °F /  26.3 °C 71.9 °F /  22.2 °C 30.00in /  1015.8hPa Calm     78% 0.00in /  0mm 0 W/m2
00:34 79.2 °F /  26.2 °C 71.7 °F /  22.1 °C 30.00in /  1015.8hPa Calm     78% 0.00in /  0mm 0 W/m2
00:39 79.1 °F /  26.2 °C 71.9 °F /  22.2 °C 30.00in /  1015.8hPa Calm     78.7% 0.00in /  0mm 0 W/m2
00:44 79 °F /  26.1 °C 71.9 °F /  22.2 °C 30.00in /  1015.8hPa Calm     79% 0.00in /  0mm 0 W/m2
00:49 78.9 °F /  26.1 °C 71.8 °F /  22.1 °C 30.00in /  1015.8hPa Calm     79% 0.00in /  0mm 0 W/m2
00:54 78.7 °F /  25.9 °C 71.7 °F /  22.1 °C 30.00in /  1015.8hPa Calm     79% 0.00in /  0mm 0 W/m2
00:59 78.6 °F /  25.9 °C 71.6 °F /  22 °C 30.00in /  1015.8hPa Calm     79.2% 0.00in /  0mm 0 W/m2
01:04 78.4 °F /  25.8 °C 71.8 °F /  22.1 °C 30.00in /  1015.8hPa Calm     80% 0.00in /  0mm 0 W/m2
01:09 78.3 °F /  25.7 °C 71.6 °F /  22 °C 30.00in /  1015.8hPa Calm     80% 0.00in /  0mm 0 W/m2
01:14 78.2 °F /  25.7 °C 71.6 °F /  22 °C 30.00in /  1015.8hPa Calm     80.3% 0.00in /  0mm 0 W/m2
01:19 78 °F /  25.6 °C 71.7 °F /  22.1 °C 29.99in /  1015.5hPa Calm     81% 0.00in /  0mm 0 W/m2
01:24 77.9 °F /  25.5 °C 71.6 °F /  22 °C 30.00in /  1015.8hPa Calm     81.1% 0.00in /  0mm 0 W/m2
01:29 77.8 °F /  25.4 °C 71.8 °F /  22.1 °C 30.00in /  1015.8hPa Calm     82% 0.00in /  0mm 0 W/m2
01:34 77.6 °F /  25.3 °C 71.7 °F /  22.1 °C 30.00in /  1015.8hPa Calm     82% 0.00in /  0mm 0 W/m2
01:39 77.5 °F /  25.3 °C 71.6 °F /  22 °C 30.00in /  1015.8hPa Calm     82% 0.00in /  0mm 0 W/m2
01:44 77.4 °F /  25.2 °C 71.8 °F /  22.1 °C 30.00in /  1015.8hPa Calm     82.9% 0.00in /  0mm 0 W/m2
01:49 77.3 °F /  25.2 °C 71.7 °F /  22.1 °C 30.00in /  1015.8hPa Calm     83% 0.00in /  0mm 0 W/m2
01:54 77.1 °F /  25.1 °C 71.6 °F /  22 °C 29.99in /  1015.5hPa Calm     83% 0.00in /  0mm 0 W/m2
01:59 77 °F /  25 °C 71.6 °F /  22 °C 30.00in /  1015.8hPa Calm     83.4% 0.00in /  0mm 0 W/m2
02:04 76.9 °F /  24.9 °C 71.7 °F /  22.1 °C 29.99in /  1015.5hPa Calm     84% 0.00in /  0mm 0 W/m2
02:09 76.8 °F /  24.9 °C 71.6 °F /  22 °C 29.99in /  1015.5hPa Calm     84% 0.00in /  0mm 0 W/m2
02:14 76.7 °F /  24.8 °C 71.5 °F /  21.9 °C 29.99in /  1015.5hPa Calm     84% 0.00in /  0mm 0 W/m2
02:19 76.6 °F /  24.8 °C 71.5 °F /  21.9 °C 29.99in /  1015.5hPa Calm     84.3% 0.00in /  0mm 0 W/m2
02:24 76.5 °F /  24.7 °C 71.7 °F /  22.1 °C 29.99in /  1015.5hPa Calm     85% 0.00in /  0mm 0 W/m2
02:29 76.4 °F /  24.7 °C 71.5 °F /  21.9 °C 29.99in /  1015.5hPa Calm     85% 0.00in /  0mm 0 W/m2
02:34 76.3 °F /  24.6 °C 71.4 °F /  21.9 °C 29.99in /  1015.5hPa Calm     85% 0.00in /  0mm 0 W/m2
02:39 76.2 °F /  24.6 °C 71.3 °F /  21.8 °C 29.99in /  1015.5hPa Calm     85% 0.00in /  0mm 0 W/m2
02:44 76 °F /  24.4 °C 71.2 °F /  21.8 °C 29.99in /  1015.5hPa Calm     85% 0.00in /  0mm 0 W/m2
02:49 75.9 °F /  24.4 °C 71.1 °F /  21.7 °C 29.99in /  1015.5hPa Calm     85% 0.00in /  0mm 0 W/m2
02:54 75.9 °F /  24.4 °C 71.3 °F /  21.8 °C 29.99in /  1015.5hPa Calm     85.8% 0.00in /  0mm 0 W/m2
02:59 75.8 °F /  24.3 °C 71.4 °F /  21.9 °C 29.99in /  1015.5hPa Calm     86.3% 0.00in /  0mm 0 W/m2
03:04 75.7 °F /  24.3 °C 71.6 °F /  22 °C 29.99in /  1015.5hPa Calm     87% 0.00in /  0mm 0 W/m2
03:09 75.7 °F /  24.3 °C 71.5 °F /  21.9 °C 29.99in /  1015.5hPa Calm     87% 0.00in /  0mm 0 W/m2
03:14 75.6 °F /  24.2 °C 71.4 °F /  21.9 °C 29.99in /  1015.5hPa Calm     87% 0.00in /  0mm 0 W/m2
03:19 75.5 °F /  24.2 °C 71.3 °F /  21.8 °C 29.99in /  1015.5hPa Calm     87% 0.00in /  0mm 0 W/m2
03:24 75.4 °F /  24.1 °C 71.3 °F /  21.8 °C 30.00in /  1015.8hPa Calm     87% 0.00in /  0mm 0 W/m2
03:29 75.4 °F /  24.1 °C 71.3 °F /  21.8 °C 30.00in /  1015.8hPa Calm     87% 0.00in /  0mm 0 W/m2
03:34 75.3 °F /  24.1 °C 71.2 °F /  21.8 °C 30.00in /  1015.8hPa Calm     87% 0.00in /  0mm 0 W/m2
03:39 75.3 °F /  24.1 °C 71.2 °F /  21.8 °C 30.00in /  1015.8hPa Calm     87% 0.00in /  0mm 0 W/m2
03:44 75.2 °F /  24 °C 71.1 °F /  21.7 °C 30.00in /  1015.8hPa Calm     87% 0.00in /  0mm 0 W/m2
03:49 75.2 °F /  24 °C 71.1 °F /  21.7 °C 30.00in /  1015.8hPa Calm     87% 0.00in /  0mm 0 W/m2
03:54 75.2 °F /  24 °C 71.1 °F /  21.7 °C 30.00in /  1015.8hPa Calm     87% 0.00in /  0mm 0 W/m2
03:59 75.2 °F /  24 °C 71.1 °F /  21.7 °C 30.00in /  1015.8hPa Calm     87% 0.00in /  0mm 0 W/m2
04:14 75.2 °F /  24 °C 71.1 °F /  21.7 °C 30.00in /  1015.8hPa Calm     87% 0.00in /  0mm 0 W/m2
04:19 75.2 °F /  24 °C 71 °F /  21.7 °C 30.00in /  1015.8hPa Calm     87% 0.00in /  0mm 0 W/m2
04:24 75.1 °F /  23.9 °C 71 °F /  21.7 °C 30.00in /  1015.8hPa Calm     87% 0.00in /  0mm 0 W/m2
04:29 75.1 °F /  23.9 °C 71 °F /  21.7 °C 30.01in /  1016.1hPa Calm     87% 0.00in /  0mm 0 W/m2
04:34 75.1 °F /  23.9 °C 71 °F /  21.7 °C 30.01in /  1016.1hPa Calm     87% 0.00in /  0mm 0 W/m2
04:39 75.1 °F /  23.9 °C 70.8 °F /  21.6 °C 30.01in /  1016.1hPa Calm     86.5% 0.00in /  0mm 0 W/m2
04:44 75.1 °F /  23.9 °C 70.6 °F /  21.4 °C 30.01in /  1016.1hPa Calm     86% 0.00in /  0mm 0 W/m2
04:49 75.1 °F /  23.9 °C 70.6 °F /  21.4 °C 30.01in /  1016.1hPa Calm     86% 0.00in /  0mm 0 W/m2
04:54 75.1 °F /  23.9 °C 70.6 °F /  21.4 °C 30.01in /  1016.1hPa Calm     86% 0.00in /  0mm 0 W/m2
04:59 75 °F /  23.9 °C 70.5 °F /  21.4 °C 30.01in /  1016.1hPa Calm     86% 0.00in /  0mm 0 W/m2
05:04 75 °F /  23.9 °C 70.5 °F /  21.4 °C 30.01in /  1016.1hPa Calm     86% 0.00in /  0mm 0 W/m2
05:09 75 °F /  23.9 °C 70.5 °F /  21.4 °C 30.01in /  1016.1hPa Calm     86% 0.00in /  0mm 0 W/m2
05:14 75 °F /  23.9 °C 70.5 °F /  21.4 °C 30.01in /  1016.1hPa Calm     85.9% 0.00in /  0mm 0 W/m2
05:19 75 °F /  23.9 °C 70.3 °F /  21.3 °C 30.01in /  1016.1hPa Calm     85.2% 0.00in /  0mm 0 W/m2
05:24 75 °F /  23.9 °C 70.2 °F /  21.2 °C 30.02in /  1016.5hPa Calm     85% 0.00in /  0mm 0 W/m2
05:29 75 °F /  23.9 °C 70.2 °F /  21.2 °C 30.02in /  1016.5hPa Calm     85% 0.00in /  0mm 0 W/m2
05:34 75 °F /  23.9 °C 70.2 °F /  21.2 °C 30.02in /  1016.5hPa Calm     85% 0.00in /  0mm 0 W/m2
05:39 74.9 °F /  23.8 °C 70 °F /  21.1 °C 30.02in /  1016.5hPa Calm     84.7% 0.00in /  0mm 0 W/m2
05:44 74.9 °F /  23.8 °C 69.9 °F /  21.1 °C 30.03in /  1016.8hPa Calm     84.3% 0.00in /  0mm 0 W/m2
05:49 74.9 °F /  23.8 °C 69.7 °F /  20.9 °C 30.03in /  1016.8hPa Calm     84% 0.00in /  0mm 0 W/m2
05:54 74.9 °F /  23.8 °C 69.5 °F /  20.8 °C 30.03in /  1016.8hPa Calm     83.2% 0.00in /  0mm 0 W/m2
05:59 74.9 °F /  23.8 °C 69.4 °F /  20.8 °C 30.03in /  1016.8hPa Calm     83% 0.00in /  0mm 7 W/m2
06:04 75 °F /  23.9 °C 69.5 °F /  20.8 °C 30.03in /  1016.8hPa Calm     83% 0.00in /  0mm 11 W/m2
06:09 75 °F /  23.9 °C 69.5 °F /  20.8 °C 30.03in /  1016.8hPa Calm     83% 0.00in /  0mm 16 W/m2
06:14 75 °F /  23.9 °C 69.7 °F /  20.9 °C 30.04in /  1017.2hPa Calm     83.7% 0.00in /  0mm 18 W/m2
06:19 75 °F /  23.9 °C 69.9 °F /  21.1 °C 30.04in /  1017.2hPa Calm     84% 0.00in /  0mm 19 W/m2
06:24 75.1 °F /  23.9 °C 70 °F /  21.1 °C 30.04in /  1017.2hPa Calm     84.1% 0.00in /  0mm 25 W/m2
06:29 75 °F /  23.9 °C 70.2 °F /  21.2 °C 30.05in /  1017.5hPa Calm     84.9% 0.00in /  0mm 32 W/m2
06:34 75 °F /  23.9 °C 69.8 °F /  21 °C 30.05in /  1017.5hPa Calm     84% 0.00in /  0mm 40 W/m2
06:39 74.9 °F /  23.8 °C 69.7 °F /  20.9 °C 30.05in /  1017.5hPa Calm     84% 0.00in /  0mm 47 W/m2
06:44 74.9 °F /  23.8 °C 69.7 °F /  20.9 °C 30.05in /  1017.5hPa Calm     84% 0.00in /  0mm 63 W/m2
06:49 75 °F /  23.9 °C 69.8 °F /  21 °C 30.05in /  1017.5hPa Calm     84% 0.00in /  0mm 77 W/m2
06:54 75.2 °F /  24 °C 69.7 °F /  20.9 °C 30.05in /  1017.5hPa Calm     83.2% 0.00in /  0mm 70 W/m2
06:59 75.6 °F /  24.2 °C 70 °F /  21.1 °C 30.05in /  1017.5hPa Calm     83% 0.00in /  0mm 91 W/m2
07:04 76 °F /  24.4 °C 70.3 °F /  21.3 °C 30.05in /  1017.5hPa Calm     82.6% 0.00in /  0mm 88 W/m2
07:09 76.3 °F /  24.6 °C 70.3 °F /  21.3 °C 30.05in /  1017.5hPa Calm     81.6% 0.00in /  0mm 62 W/m2
07:14 76.6 °F /  24.8 °C 70 °F /  21.1 °C 30.05in /  1017.5hPa Calm     80.3% 0.00in /  0mm 65 W/m2
07:19 76.7 °F /  24.8 °C 70 °F /  21.1 °C 30.05in /  1017.5hPa Calm     79.8% 0.00in /  0mm 65 W/m2
07:24 76.9 °F /  24.9 °C 69.9 °F /  21.1 °C 30.05in /  1017.5hPa Calm     79% 0.00in /  0mm 72 W/m2
07:29 77 °F /  25 °C 70 °F /  21.1 °C 30.05in /  1017.5hPa Calm     79% 0.00in /  0mm 72 W/m2
07:34 77.2 °F /  25.1 °C 70.1 °F /  21.2 °C 30.05in /  1017.5hPa Calm     79% 0.00in /  0mm 83 W/m2
07:39 77.3 °F /  25.2 °C 70.5 °F /  21.4 °C 30.05in /  1017.5hPa Calm     79.6% 0.00in /  0mm 95 W/m2
07:44 77.5 °F /  25.3 °C 71 °F /  21.7 °C 30.05in /  1017.5hPa Calm     80.6% 0.00in /  0mm 97 W/m2
07:49 77.6 °F /  25.3 °C 70.9 °F /  21.6 °C 30.05in /  1017.5hPa Calm     79.8% 0.00in /  0mm 95 W/m2
07:54 77.6 °F /  25.3 °C 70.5 °F /  21.4 °C 30.06in /  1017.8hPa Calm     78.7% 0.00in /  0mm 95 W/m2
07:59 77.7 °F /  25.4 °C 70.3 °F /  21.3 °C 30.06in /  1017.8hPa Calm     78% 0.00in /  0mm 91 W/m2
08:00 77.7 °F /  25.4 °C 70.3 °F /  21.3 °C 30.06in /  1017.8hPa Calm     78% 0.00in /  0mm 88 W/m2
08:09 77.9 °F /  25.5 °C 70.5 °F /  21.4 °C 30.06in /  1017.8hPa Calm     78% 0.00in /  0mm 102 W/m2
08:14 78.1 °F /  25.6 °C 70.7 °F /  21.5 °C 30.06in /  1017.8hPa Calm     78% 0.00in /  0mm 111 W/m2
08:19 78.3 °F /  25.7 °C 70.9 °F /  21.6 °C 30.06in /  1017.8hPa Calm     78% 0.00in /  0mm 120 W/m2
08:24 78.4 °F /  25.8 °C 70.7 °F /  21.5 °C 30.07in /  1018.2hPa Calm     77.3% 0.00in /  0mm 128 W/m2
08:29 78.6 °F /  25.9 °C 70.8 °F /  21.6 °C 30.06in /  1017.8hPa Calm     77.1% 0.00in /  0mm 128 W/m2
08:34 78.8 °F /  26 °C 71.1 °F /  21.7 °C 30.07in /  1018.2hPa Calm     77.4% 0.00in /  0mm 127 W/m2
08:39 79.1 °F /  26.2 °C 71.6 °F /  22 °C 30.07in /  1018.2hPa Calm     78% 0.00in /  0mm 123 W/m2
08:44 79.3 °F /  26.3 °C 71.8 °F /  22.1 °C 30.07in /  1018.2hPa Calm     77.9% 0.00in /  0mm 111 W/m2
08:49 79.4 °F /  26.3 °C 71.6 °F /  22 °C 30.07in /  1018.2hPa Calm     77% 0.00in /  0mm 113 W/m2
08:54 79.6 °F /  26.4 °C 71.4 °F /  21.9 °C 30.07in /  1018.2hPa Calm     76.3% 0.00in /  0mm 120 W/m2
08:59 79.7 °F /  26.5 °C 71.4 °F /  21.9 °C 30.07in /  1018.2hPa Calm     76% 0.00in /  0mm 127 W/m2
09:04 79.8 °F /  26.6 °C 71.2 °F /  21.8 °C 30.07in /  1018.2hPa Calm     75% 0.00in /  0mm 144 W/m2
09:09 79.9 °F /  26.6 °C 71.6 °F /  22 °C 30.07in /  1018.2hPa Calm     75.8% 0.00in /  0mm 172 W/m2
09:14 80.2 °F /  26.8 °C 71.8 °F /  22.1 °C 30.08in /  1018.5hPa Calm     75.7% 0.00in /  0mm 237 W/m2
09:19 80.3 °F /  26.8 °C 71.9 °F /  22.2 °C 30.08in /  1018.5hPa Calm     75.4% 0.00in /  0mm 295 W/m2
09:24 80.6 °F /  27 °C 71.9 °F /  22.2 °C 30.08in /  1018.5hPa Calm     74.9% 0.00in /  0mm 408 W/m2
09:29 80.9 °F /  27.2 °C 71.8 °F /  22.1 °C 30.08in /  1018.5hPa Calm     73.8% 0.00in /  0mm 339 W/m2
09:34 81.3 °F /  27.4 °C 71.8 °F /  22.1 °C 30.08in /  1018.5hPa Calm     72.9% 0.00in /  0mm 316 W/m2
09:39 81.7 °F /  27.6 °C 71.5 °F /  21.9 °C 30.08in /  1018.5hPa Calm     71.2% 0.00in /  0mm 246 W/m2
09:44 82.1 °F /  27.8 °C 72.2 °F /  22.3 °C 30.08in /  1018.5hPa Calm     72% 0.00in /  0mm 171 W/m2
09:49 82.4 °F /  28 °C 71.9 °F /  22.2 °C 30.08in /  1018.5hPa Calm     70.5% 0.00in /  0mm 142 W/m2
09:54 82.6 °F /  28.1 °C 71.8 °F /  22.1 °C 30.08in /  1018.5hPa Calm     70% 0.00in /  0mm 148 W/m2
09:59 82.7 °F /  28.2 °C 71.9 °F /  22.2 °C 30.08in /  1018.5hPa Calm     69.9% 0.00in /  0mm 171 W/m2
10:04 82.8 °F /  28.2 °C 72.3 °F /  22.4 °C 30.08in /  1018.5hPa Calm     70.4% 0.00in /  0mm 185 W/m2
10:09 82.9 °F /  28.3 °C 72.1 °F /  22.3 °C 30.08in /  1018.5hPa Calm     70% 0.00in /  0mm 204 W/m2
10:14 83 °F /  28.3 °C 72.3 °F /  22.4 °C 30.08in /  1018.5hPa Calm     70.3% 0.00in /  0mm 232 W/m2
10:19 83.1 °F /  28.4 °C 72.4 °F /  22.4 °C 30.08in /  1018.5hPa Calm     70.3% 0.00in /  0mm 241 W/m2
10:24 83.2 °F /  28.4 °C 72.4 °F /  22.4 °C 30.09in /  1018.8hPa Calm     70% 0.00in /  0mm 253 W/m2
10:29 83.4 °F /  28.6 °C 72.9 °F /  22.7 °C 30.09in /  1018.8hPa Calm     70.8% 0.00in /  0mm 258 W/m2
10:34 83.6 °F /  28.7 °C 73.2 °F /  22.9 °C 30.09in /  1018.8hPa Calm     71% 0.00in /  0mm 264 W/m2
10:39 83.7 °F /  28.7 °C 73.2 °F /  22.9 °C 30.09in /  1018.8hPa Calm     70.7% 0.00in /  0mm 278 W/m2
10:44 83.9 °F /  28.8 °C 73.6 °F /  23.1 °C 30.09in /  1018.8hPa Calm     71.1% 0.00in /  0mm 295 W/m2
10:49 84.1 °F /  28.9 °C 73.7 °F /  23.2 °C 30.09in /  1018.8hPa Calm   3mph /  4.8km/h 71.1% 0.00in /  0mm 311 W/m2
10:54 84.3 °F /  29.1 °C 73.4 °F /  23 °C 30.09in /  1018.8hPa Calm   3mph /  4.8km/h 69.8% 0.00in /  0mm 308 W/m2
10:59 84.4 °F /  29.1 °C 73.4 °F /  23 °C 30.09in /  1018.8hPa Calm   3mph /  4.8km/h 69.5% 0.00in /  0mm 378 W/m2
11:04 84.7 °F /  29.3 °C 74.3 °F /  23.5 °C 30.09in /  1018.8hPa Calm   3mph /  4.8km/h 71% 0.00in /  0mm 425 W/m2
11:09 85.2 °F /  29.6 °C 74.1 °F /  23.4 °C 30.09in /  1018.8hPa Calm   1mph /  1.6km/h 69.6% 0.00in /  0mm 701 W/m2
11:14 85.5 °F /  29.7 °C 73.2 °F /  22.9 °C 30.09in /  1018.8hPa Calm   1mph /  1.6km/h 66.8% 0.00in /  0mm 631 W/m2
11:19 85.8 °F /  29.9 °C 73.3 °F /  22.9 °C 30.09in /  1018.8hPa Calm   1mph /  1.6km/h 66.3% 0.00in /  0mm 689 W/m2
11:24 86.4 °F /  30.2 °C 73.9 °F /  23.3 °C 30.09in /  1018.8hPa Calm   1mph /  1.6km/h 66.5% 0.00in /  0mm 803 W/m2
11:29 87.1 °F /  30.6 °C 74 °F /  23.3 °C 30.09in /  1018.8hPa Calm   1mph /  1.6km/h 65% 0.00in /  0mm 798 W/m2
11:34 87.7 °F /  30.9 °C 74.2 °F /  23.4 °C 30.09in /  1018.8hPa Calm   1mph /  1.6km/h 64.3% 0.00in /  0mm 930 W/m2
11:39 88.5 °F /  31.4 °C 74.7 °F /  23.7 °C 30.09in /  1018.8hPa SW 0.1mph /  0.2km/h 1mph /  1.6km/h 63.8% 0.00in /  0mm 926 W/m2
11:44 89.5 °F /  31.9 °C 75.1 °F /  23.9 °C 30.09in /  1018.8hPa Calm   1mph /  1.6km/h 62.9% 0.00in /  0mm 921 W/m2
11:49 90.3 °F /  32.4 °C 75.1 °F /  23.9 °C 30.09in /  1018.8hPa Calm   1mph /  1.6km/h 61% 0.00in /  0mm 802 W/m2
11:54 90.5 °F /  32.5 °C 73.8 °F /  23.2 °C 30.09in /  1018.8hPa Calm   1mph /  1.6km/h 58.3% 0.00in /  0mm 837 W/m2
11:59 90.3 °F /  32.4 °C 73.6 °F /  23.1 °C 30.09in /  1018.8hPa SW 0.3mph /  0.5km/h 3mph /  4.8km/h 58.1% 0.00in /  0mm 737 W/m2
12:00 90.2 °F /  32.3 °C 72.4 °F /  22.4 °C 30.08in /  1018.5hPa Calm   3mph /  4.8km/h 56% 0.00in /  0mm 587 W/m2
12:09 89.8 °F /  32.1 °C 72.7 °F /  22.6 °C 30.08in /  1018.5hPa Calm     57.4% 0.00in /  0mm 401 W/m2
12:14 89.6 °F /  32 °C 73.3 °F /  22.9 °C 30.09in /  1018.8hPa Calm     58.8% 0.00in /  0mm 766 W/m2
12:19 89.6 °F /  32 °C 73.3 °F /  22.9 °C 30.08in /  1018.5hPa Calm     59% 0.00in /  0mm 889 W/m2
12:24 89.8 °F /  32.1 °C 73.3 °F /  22.9 °C 30.08in /  1018.5hPa Calm   1mph /  1.6km/h 58.6% 0.00in /  0mm 977 W/m2
12:29 90.3 °F /  32.4 °C 74 °F /  23.3 °C 30.08in /  1018.5hPa Calm   1mph /  1.6km/h 58.9% 0.00in /  0mm 997 W/m2
12:34 90.8 °F /  32.7 °C 73.6 °F /  23.1 °C 30.08in /  1018.5hPa SW 0.1mph /  0.2km/h 2mph /  3.2km/h 57.4% 0.00in /  0mm 997 W/m2
12:39 91 °F /  32.8 °C 73.3 °F /  22.9 °C 30.08in /  1018.5hPa Calm   2mph /  3.2km/h 56.2% 0.00in /  0mm 805 W/m2
12:44 91.3 °F /  32.9 °C 73.6 °F /  23.1 °C 30.08in /  1018.5hPa Calm   2mph /  3.2km/h 56.4% 0.00in /  0mm 812 W/m2
12:49 91.5 °F /  33.1 °C 73.5 °F /  23.1 °C 30.08in /  1018.5hPa SW 0.1mph /  0.2km/h 2mph /  3.2km/h 55.8% 0.00in /  0mm 735 W/m2
12:54 91.8 °F /  33.2 °C 73.8 °F /  23.2 °C 30.08in /  1018.5hPa Calm   2mph /  3.2km/h 55.8% 0.00in /  0mm 747 W/m2
12:59 92 °F /  33.3 °C 73.5 °F /  23.1 °C 30.08in /  1018.5hPa Calm   2mph /  3.2km/h 55% 0.00in /  0mm 628 W/m2
13:04 92.1 °F /  33.4 °C 73.2 °F /  22.9 °C 30.08in /  1018.5hPa Calm   2mph /  3.2km/h 54.1% 0.00in /  0mm 675 W/m2
13:09 92.2 °F /  33.4 °C 73.4 °F /  23 °C 30.08in /  1018.5hPa Calm     54.4% 0.00in /  0mm 675 W/m2
13:14 92.3 °F /  33.5 °C 73.3 °F /  22.9 °C 30.08in /  1018.5hPa SW 0.4mph /  0.6km/h 4mph /  6.4km/h 54.2% 0.00in /  0mm 432 W/m2
13:19 92.2 °F /  33.4 °C 72.4 °F /  22.4 °C 30.08in /  1018.5hPa Calm   4mph /  6.4km/h 52.5% 0.00in /  0mm 403 W/m2
13:24 92.1 °F /  33.4 °C 72.5 °F /  22.5 °C 30.08in /  1018.5hPa Calm   4mph /  6.4km/h 52.9% 0.00in /  0mm 353 W/m2
13:29 92.1 °F /  33.4 °C 73.6 °F /  23.1 °C 30.08in /  1018.5hPa WSW 1.2mph /  1.9km/h 5mph /  8km/h 55% 0.00in /  0mm 380 W/m2
13:34 92.2 °F /  33.4 °C 74 °F /  23.3 °C 30.08in /  1018.5hPa Calm   5mph /  8km/h 55.5% 0.00in /  0mm 318 W/m2
13:39 92.3 °F /  33.5 °C 73.5 °F /  23.1 °C 30.08in /  1018.5hPa WSW 0.1mph /  0.2km/h 2mph /  3.2km/h 54.5% 0.00in /  0mm 281 W/m2
13:44 92.4 °F /  33.6 °C 73.6 °F /  23.1 °C 30.08in /  1018.5hPa WSW 0.5mph /  0.8km/h 4mph /  6.4km/h 54.5% 0.00in /  0mm 265 W/m2
13:49 92.4 °F /  33.6 °C 73.4 °F /  23 °C 30.08in /  1018.5hPa Calm   4mph /  6.4km/h 54.1% 0.00in /  0mm 243 W/m2
13:54 92.4 °F /  33.6 °C 74 °F /  23.3 °C 30.08in /  1018.5hPa Calm   4mph /  6.4km/h 55.3% 0.00in /  0mm 258 W/m2
13:59 92.3 °F /  33.5 °C 74.2 °F /  23.4 °C 30.08in /  1018.5hPa West 0.7mph /  1.1km/h 7mph /  11.3km/h 55.7% 0.00in /  0mm 272 W/m2
14:04 92.3 °F /  33.5 °C 74.3 °F /  23.5 °C 30.08in /  1018.5hPa West 0.3mph /  0.5km/h 7mph /  11.3km/h 55.9% 0.00in /  0mm 274 W/m2
14:09 92.2 °F /  33.4 °C 73.7 °F /  23.2 °C 30.07in /  1018.2hPa West 1.1mph /  1.8km/h 5mph /  8km/h 54.9% 0.00in /  0mm 262 W/m2
14:14 91.9 °F /  33.3 °C 73.5 °F /  23.1 °C 30.07in /  1018.2hPa West 0.1mph /  0.2km/h 5mph /  8km/h 55% 0.00in /  0mm 239 W/m2
14:19 91.7 °F /  33.2 °C 74.3 °F /  23.5 °C 30.07in /  1018.2hPa West 1.3mph /  2.1km/h 6mph /  9.7km/h 56.9% 0.00in /  0mm 244 W/m2
14:24 91.4 °F /  33 °C 74.7 °F /  23.7 °C 30.07in /  1018.2hPa Calm   6mph /  9.7km/h 58.3% 0.00in /  0mm 673 W/m2
14:29 91.3 °F /  32.9 °C 76 °F /  24.4 °C 30.07in /  1018.2hPa Calm   6mph /  9.7km/h 61% 0.00in /  0mm 684 W/m2
14:34 91.4 °F /  33 °C 75.7 °F /  24.3 °C 30.07in /  1018.2hPa West 0.3mph /  0.5km/h 6mph /  9.7km/h 60.3% 0.00in /  0mm 619 W/m2
14:39 91.8 °F /  33.2 °C 74.1 °F /  23.4 °C 30.07in /  1018.2hPa West 0.1mph /  0.2km/h 4mph /  6.4km/h 56.3% 0.00in /  0mm 137 W/m2
14:44 92.3 °F /  33.5 °C 74 °F /  23.3 °C 30.06in /  1017.8hPa West 0.6mph /  1km/h 6mph /  9.7km/h 55.5% 0.00in /  0mm 130 W/m2
14:49 92.7 °F /  33.7 °C 73.6 °F /  23.1 °C 30.06in /  1017.8hPa West 0.4mph /  0.6km/h 6mph /  9.7km/h 54% 0.00in /  0mm 84 W/m2
14:54 93 °F /  33.9 °C 73.8 °F /  23.2 °C 30.06in /  1017.8hPa West 0.1mph /  0.2km/h 6mph /  9.7km/h 53.8% 0.00in /  0mm 84 W/m2
14:59 93.3 °F /  34.1 °C 73.1 °F /  22.8 °C 30.06in /  1017.8hPa West 0.1mph /  0.2km/h 6mph /  9.7km/h 52.1% 0.00in /  0mm 107 W/m2
15:04 93.5 °F /  34.2 °C 73.6 °F /  23.1 °C 30.06in /  1017.8hPa Calm   6mph /  9.7km/h 52.7% 0.00in /  0mm 128 W/m2
15:09 93.6 °F /  34.2 °C 73.6 °F /  23.1 °C 30.05in /  1017.5hPa West 0.5mph /  0.8km/h 3mph /  4.8km/h 52.4% 0.00in /  0mm 132 W/m2
15:14 93.7 °F /  34.3 °C 74.3 °F /  23.5 °C 30.05in /  1017.5hPa West 1mph /  1.6km/h 7mph /  11.3km/h 53.5% 0.00in /  0mm 141 W/m2
15:19 94.1 °F /  34.5 °C 74.7 °F /  23.7 °C 30.05in /  1017.5hPa WSW 1.4mph /  2.3km/h 7mph /  11.3km/h 53.6% 0.00in /  0mm 221 W/m2
15:24 94.6 °F /  34.8 °C 74.4 °F /  23.6 °C 30.05in /  1017.5hPa WSW 0.6mph /  1km/h 7mph /  11.3km/h 52.2% 0.00in /  0mm 137 W/m2
15:29 95 °F /  35 °C 74.4 °F /  23.6 °C 30.05in /  1017.5hPa WSW 0.5mph /  0.8km/h 7mph /  11.3km/h 51.6% 0.00in /  0mm 139 W/m2
15:34 94.9 °F /  34.9 °C 74.3 °F /  23.5 °C 30.05in /  1017.5hPa Calm   7mph /  11.3km/h 51.5% 0.00in /  0mm 144 W/m2
15:39 94.7 °F /  34.8 °C 73.9 °F /  23.3 °C 30.05in /  1017.5hPa Calm   1mph /  1.6km/h 51.3% 0.00in /  0mm 144 W/m2
15:44 94.2 °F /  34.6 °C 73.7 °F /  23.2 °C 30.05in /  1017.5hPa Calm   2mph /  3.2km/h 51.7% 0.00in /  0mm 135 W/m2
15:49 93.7 °F /  34.3 °C 73.7 °F /  23.2 °C 30.05in /  1017.5hPa Calm   2mph /  3.2km/h 52.4% 0.00in /  0mm 139 W/m2
15:54 93.3 °F /  34.1 °C 74 °F /  23.3 °C 30.04in /  1017.2hPa WSW 0.1mph /  0.2km/h 2mph /  3.2km/h 53.5% 0.00in /  0mm 139 W/m2
15:59 93 °F /  33.9 °C 73.3 °F /  22.9 °C 30.04in /  1017.2hPa Calm   2mph /  3.2km/h 52.8% 0.00in /  0mm 130 W/m2
16:09 92.5 °F /  33.6 °C 73.6 °F /  23.1 °C 30.04in /  1017.2hPa Calm     54.1% 0.00in /  0mm 139 W/m2
16:14 92.4 °F /  33.6 °C 73.8 °F /  23.2 °C 30.05in /  1017.5hPa Calm     54.8% 0.00in /  0mm 148 W/m2
16:19 92.3 °F /  33.5 °C 74.3 °F /  23.5 °C 30.04in /  1017.2hPa WSW 0.2mph /  0.3km/h 5mph /  8km/h 56% 0.00in /  0mm 151 W/m2
16:24 92.4 °F /  33.6 °C 74.4 °F /  23.6 °C 30.04in /  1017.2hPa WSW 0.7mph /  1.1km/h 5mph /  8km/h 56% 0.00in /  0mm 141 W/m2
16:29 92.5 °F /  33.6 °C 74.5 °F /  23.6 °C 30.05in /  1017.5hPa WSW 0.3mph /  0.5km/h 5mph /  8km/h 55.8% 0.00in /  0mm 120 W/m2
16:34 92.7 °F /  33.7 °C 74.4 °F /  23.6 °C 30.05in /  1017.5hPa West 0.6mph /  1km/h 5mph /  8km/h 55.4% 0.00in /  0mm 97 W/m2
16:39 92.9 °F /  33.8 °C 73.9 °F /  23.3 °C 30.05in /  1017.5hPa West 0.9mph /  1.4km/h 5mph /  8km/h 54.1% 0.00in /  0mm 81 W/m2
16:44 93.1 °F /  33.9 °C 74.1 °F /  23.4 °C 30.05in /  1017.5hPa West 0.2mph /  0.3km/h 5mph /  8km/h 54.3% 0.00in /  0mm 69 W/m2
16:49 93.1 °F /  33.9 °C 74.2 °F /  23.4 °C 30.05in /  1017.5hPa West 0.6mph /  1km/h 5mph /  8km/h 54.4% 0.00in /  0mm 62 W/m2
16:54 93.1 °F /  33.9 °C 74.2 °F /  23.4 °C 30.05in /  1017.5hPa West 0.6mph /  1km/h 6mph /  9.7km/h 54.3% 0.00in /  0mm 58 W/m2
16:59 93.1 °F /  33.9 °C 73.8 °F /  23.2 °C 30.05in /  1017.5hPa West 0.7mph /  1.1km/h 6mph /  9.7km/h 53.6% 0.00in /  0mm 58 W/m2
17:04 93.2 °F /  34 °C 73.8 °F /  23.2 °C 30.05in /  1017.5hPa West 2.4mph /  3.9km/h 7mph /  11.3km/h 53.5% 0.00in /  0mm 63 W/m2
17:09 93.3 °F /  34.1 °C 74.1 °F /  23.4 °C 30.05in /  1017.5hPa WNW 1mph /  1.6km/h 7mph /  11.3km/h 53.9% 0.00in /  0mm 84 W/m2
17:14 93.3 °F /  34.1 °C 73.7 °F /  23.2 °C 30.05in /  1017.5hPa West 0.6mph /  1km/h 7mph /  11.3km/h 53.2% 0.00in /  0mm 84 W/m2
17:19 93.2 °F /  34 °C 74.1 °F /  23.4 °C 30.05in /  1017.5hPa West 0.6mph /  1km/h 7mph /  11.3km/h 53.9% 0.00in /  0mm 83 W/m2
17:24 93.1 °F /  33.9 °C 73.8 °F /  23.2 °C 30.05in /  1017.5hPa West 0.4mph /  0.6km/h 7mph /  11.3km/h 53.6% 0.00in /  0mm 83 W/m2
17:29 92.9 °F /  33.8 °C 73.6 °F /  23.1 °C 30.06in /  1017.8hPa West 0.4mph /  0.6km/h 7mph /  11.3km/h 53.7% 0.00in /  0mm 74 W/m2
17:34 92.6 °F /  33.7 °C 73.7 °F /  23.2 °C 30.06in /  1017.8hPa West 0.2mph /  0.3km/h 7mph /  11.3km/h 54.3% 0.00in /  0mm 77 W/m2
17:39 92.4 °F /  33.6 °C 73.7 °F /  23.2 °C 30.05in /  1017.5hPa West 0.2mph /  0.3km/h 4mph /  6.4km/h 54.7% 0.00in /  0mm 77 W/m2
17:44 92.2 °F /  33.4 °C 74 °F /  23.3 °C 30.06in /  1017.8hPa Calm   4mph /  6.4km/h 55.6% 0.00in /  0mm 74 W/m2
17:49 92 °F /  33.3 °C 74 °F /  23.3 °C 30.06in /  1017.8hPa Calm   4mph /  6.4km/h 56% 0.00in /  0mm 72 W/m2
17:54 91.7 °F /  33.2 °C 73.7 °F /  23.2 °C 30.06in /  1017.8hPa West 0.1mph /  0.2km/h 4mph /  6.4km/h 56% 0.00in /  0mm 70 W/m2
17:59 91.3 °F /  32.9 °C 73.8 °F /  23.2 °C 30.06in /  1017.8hPa Calm   4mph /  6.4km/h 56.7% 0.00in /  0mm 69 W/m2
18:04 91.1 °F /  32.8 °C 73.9 °F /  23.3 °C 30.05in /  1017.5hPa West 0.2mph /  0.3km/h 4mph /  6.4km/h 57.3% 0.00in /  0mm 67 W/m2
18:09 90.9 °F /  32.7 °C 73.9 °F /  23.3 °C 30.05in /  1017.5hPa West 0.1mph /  0.2km/h 4mph /  6.4km/h 57.6% 0.00in /  0mm 70 W/m2
18:14 90.7 °F /  32.6 °C 73.9 °F /  23.3 °C 30.05in /  1017.5hPa West 0.1mph /  0.2km/h 4mph /  6.4km/h 58% 0.00in /  0mm 72 W/m2
18:19 90.4 °F /  32.4 °C 73.7 °F /  23.2 °C 30.05in /  1017.5hPa Calm   4mph /  6.4km/h 58% 0.00in /  0mm 74 W/m2
18:24 90.1 °F /  32.3 °C 73.9 °F /  23.3 °C 30.05in /  1017.5hPa Calm   4mph /  6.4km/h 59% 0.00in /  0mm 72 W/m2
18:29 89.8 °F /  32.1 °C 73.8 °F /  23.2 °C 30.05in /  1017.5hPa Calm   4mph /  6.4km/h 59.4% 0.00in /  0mm 70 W/m2
18:34 89.6 °F /  32 °C 73.8 °F /  23.2 °C 30.06in /  1017.8hPa Calm   4mph /  6.4km/h 59.9% 0.00in /  0mm 69 W/m2
18:39 89.4 °F /  31.9 °C 73.8 °F /  23.2 °C 30.06in /  1017.8hPa West 0.1mph /  0.2km/h 2mph /  3.2km/h 60.2% 0.00in /  0mm 69 W/m2
18:44 89.3 °F /  31.8 °C 74.3 °F /  23.5 °C 30.06in /  1017.8hPa Calm   2mph /  3.2km/h 61.4% 0.00in /  0mm 65 W/m2
18:49 89.2 °F /  31.8 °C 74.4 °F /  23.6 °C 30.06in /  1017.8hPa West 0.2mph /  0.3km/h 3mph /  4.8km/h 62% 0.00in /  0mm 60 W/m2
18:54 89 °F /  31.7 °C 74.4 °F /  23.6 °C 30.06in /  1017.8hPa Calm   3mph /  4.8km/h 62.1% 0.00in /  0mm 54 W/m2
18:59 88.8 °F /  31.6 °C 74.6 °F /  23.7 °C 30.06in /  1017.8hPa Calm   3mph /  4.8km/h 63% 0.00in /  0mm 47 W/m2
19:04 88.6 °F /  31.4 °C 74.4 °F /  23.6 °C 30.06in /  1017.8hPa Calm   3mph /  4.8km/h 63% 0.00in /  0mm 40 W/m2
19:09 88.4 °F /  31.3 °C 74.4 °F /  23.6 °C 30.06in /  1017.8hPa Calm   1mph /  1.6km/h 63.4% 0.00in /  0mm 32 W/m2
19:14 88.1 °F /  31.2 °C 74.4 °F /  23.6 °C 30.06in /  1017.8hPa Calm   1mph /  1.6km/h 64% 0.00in /  0mm 26 W/m2
19:19 87.9 °F /  31.1 °C 74.3 °F /  23.5 °C 30.07in /  1018.2hPa West 0.2mph /  0.3km/h 4mph /  6.4km/h 64.3% 0.00in /  0mm 21 W/m2
19:24 87.6 °F /  30.9 °C 74.4 °F /  23.6 °C 30.07in /  1018.2hPa Calm   4mph /  6.4km/h 65% 0.00in /  0mm 18 W/m2
19:29 87.4 °F /  30.8 °C 74.6 °F /  23.7 °C 30.08in /  1018.5hPa Calm   4mph /  6.4km/h 66% 0.00in /  0mm 14 W/m2
19:34 87.2 °F /  30.7 °C 74.4 °F /  23.6 °C 30.08in /  1018.5hPa Calm   4mph /  6.4km/h 66% 0.00in /  0mm 12 W/m2
19:39 87 °F /  30.6 °C 74.4 °F /  23.6 °C 30.08in /  1018.5hPa Calm     66.4% 0.00in /  0mm 9 W/m2
19:44 86.8 °F /  30.4 °C 74.5 °F /  23.6 °C 30.08in /  1018.5hPa Calm     67% 0.00in /  0mm 9 W/m2
19:49 86.6 °F /  30.3 °C 74.3 °F /  23.5 °C 30.09in /  1018.8hPa Calm     67% 0.00in /  0mm 7 W/m2
19:54 86.4 °F /  30.2 °C 74.6 °F /  23.7 °C 30.09in /  1018.8hPa Calm     68% 0.00in /  0mm 5 W/m2
19:59 86.3 °F /  30.2 °C 74.5 °F /  23.6 °C 30.09in /  1018.8hPa Calm     68% 0.00in /  0mm 0 W/m2
20:00 86.2 °F /  30.1 °C 74.4 °F /  23.6 °C 30.09in /  1018.8hPa Calm     68% 0.00in /  0mm 0 W/m2
20:09 86 °F /  30 °C 74.6 °F /  23.7 °C 30.09in /  1018.8hPa Calm     69% 0.00in /  0mm 0 W/m2
20:14 85.8 °F /  29.9 °C 74.5 °F /  23.6 °C 30.09in /  1018.8hPa Calm     69% 0.00in /  0mm 0 W/m2
20:19 85.7 °F /  29.8 °C 74.4 °F /  23.6 °C 30.09in /  1018.8hPa Calm     69% 0.00in /  0mm 0 W/m2
20:24 85.6 °F /  29.8 °C 74.2 °F /  23.4 °C 30.09in /  1018.8hPa Calm     69% 0.00in /  0mm 0 W/m2
20:29 85.4 °F /  29.7 °C 74.1 °F /  23.4 °C 30.09in /  1018.8hPa Calm     69% 0.00in /  0mm 0 W/m2
20:34 85.3 °F /  29.6 °C 74 °F /  23.3 °C 30.09in /  1018.8hPa Calm     69% 0.00in /  0mm 0 W/m2
20:39 85.2 °F /  29.6 °C 74.3 °F /  23.5 °C 30.09in /  1018.8hPa Calm     70% 0.00in /  0mm 0 W/m2
20:44 85.1 °F /  29.5 °C 74.2 °F /  23.4 °C 30.09in /  1018.8hPa Calm   2mph /  3.2km/h 70% 0.00in /  0mm 0 W/m2
20:49 85 °F /  29.4 °C 74.1 °F /  23.4 °C 30.09in /  1018.8hPa Calm   2mph /  3.2km/h 70% 0.00in /  0mm 0 W/m2
20:54 84.8 °F /  29.3 °C 74 °F /  23.3 °C 30.10in /  1019.2hPa Calm   2mph /  3.2km/h 70% 0.00in /  0mm 0 W/m2
20:59 84.7 °F /  29.3 °C 74.2 °F /  23.4 °C 30.10in /  1019.2hPa Calm   2mph /  3.2km/h 70.7% 0.00in /  0mm 0 W/m2
21:04 84.6 °F /  29.2 °C 74.2 °F /  23.4 °C 30.10in /  1019.2hPa Calm   2mph /  3.2km/h 71% 0.00in /  0mm 0 W/m2
21:09 84.5 °F /  29.2 °C 74 °F /  23.3 °C 30.10in /  1019.2hPa Calm     71% 0.00in /  0mm 0 W/m2
21:14 84.4 °F /  29.1 °C 74 °F /  23.3 °C 30.10in /  1019.2hPa Calm     71.1% 0.00in /  0mm 0 W/m2
21:19 84.2 °F /  29 °C 74.2 °F /  23.4 °C 30.10in /  1019.2hPa Calm     72% 0.00in /  0mm 0 W/m2
21:24 84.1 °F /  28.9 °C 74.1 °F /  23.4 °C 30.10in /  1019.2hPa Calm     72% 0.00in /  0mm 0 W/m2
21:29 84 °F /  28.9 °C 74 °F /  23.3 °C 30.10in /  1019.2hPa Calm     72% 0.00in /  0mm 0 W/m2
21:34 83.9 °F /  28.8 °C 73.9 °F /  23.3 °C 30.10in /  1019.2hPa Calm     72% 0.00in /  0mm 0 W/m2
21:39 83.8 °F /  28.8 °C 73.8 °F /  23.2 °C 30.11in /  1019.5hPa Calm     72% 0.00in /  0mm 0 W/m2
21:44 83.6 °F /  28.7 °C 73.9 °F /  23.3 °C 30.11in /  1019.5hPa Calm     72.7% 0.00in /  0mm 0 W/m2
21:49 83.5 °F /  28.6 °C 73.9 °F /  23.3 °C 30.11in /  1019.5hPa Calm     73% 0.00in /  0mm 0 W/m2
21:54 83.3 °F /  28.5 °C 73.8 °F /  23.2 °C 30.11in /  1019.5hPa Calm     73% 0.00in /  0mm 0 W/m2
21:59 83.2 °F /  28.4 °C 73.7 °F /  23.2 °C 30.11in /  1019.5hPa Calm     73% 0.00in /  0mm 0 W/m2
22:04 83.1 °F /  28.4 °C 73.6 °F /  23.1 °C 30.11in /  1019.5hPa Calm     73% 0.00in /  0mm 0 W/m2
22:09 83 °F /  28.3 °C 73.4 °F /  23 °C 30.11in /  1019.5hPa Calm     73% 0.00in /  0mm 0 W/m2
22:14 82.9 °F /  28.3 °C 73.3 °F /  22.9 °C 30.11in /  1019.5hPa Calm     73% 0.00in /  0mm 0 W/m2
22:19 82.8 °F /  28.2 °C 73.3 °F /  22.9 °C 30.11in /  1019.5hPa Calm     73% 0.00in /  0mm 0 W/m2
22:24 82.7 °F /  28.2 °C 73.5 °F /  23.1 °C 30.11in /  1019.5hPa Calm     74% 0.00in /  0mm 0 W/m2
22:29 82.5 °F /  28.1 °C 73.4 °F /  23 °C 30.11in /  1019.5hPa Calm   1mph /  1.6km/h 74% 0.00in /  0mm 0 W/m2
22:34 82.3 °F /  27.9 °C 73.2 °F /  22.9 °C 30.11in /  1019.5hPa Calm   1mph /  1.6km/h 74% 0.00in /  0mm 0 W/m2
22:39 82.2 °F /  27.9 °C 73.1 °F /  22.8 °C 30.11in /  1019.5hPa Calm     74% 0.00in /  0mm 0 W/m2
22:44 82.1 °F /  27.8 °C 73 °F /  22.8 °C 30.11in /  1019.5hPa Calm     74% 0.00in /  0mm 0 W/m2
22:49 81.9 °F /  27.7 °C 73 °F /  22.8 °C 30.11in /  1019.5hPa Calm     74.3% 0.00in /  0mm 0 W/m2
22:54 81.8 °F /  27.7 °C 73.1 °F /  22.8 °C 30.11in /  1019.5hPa Calm     75% 0.00in /  0mm 0 W/m2
22:59 81.6 °F /  27.6 °C 72.9 °F /  22.7 °C 30.11in /  1019.5hPa Calm     75% 0.00in /  0mm 0 W/m2
23:04 81.4 °F /  27.4 °C 72.8 °F /  22.7 °C 30.11in /  1019.5hPa Calm     75.2% 0.00in /  0mm 0 W/m2
23:09 81.3 °F /  27.4 °C 73 °F /  22.8 °C 30.11in /  1019.5hPa Calm     76% 0.00in /  0mm 0 W/m2
23:14 81.1 °F /  27.3 °C 72.9 °F /  22.7 °C 30.11in /  1019.5hPa Calm     76% 0.00in /  0mm 0 W/m2
23:19 81 °F /  27.2 °C 72.7 °F /  22.6 °C 30.11in /  1019.5hPa Calm     76% 0.00in /  0mm 0 W/m2
23:24 80.8 °F /  27.1 °C 72.6 °F /  22.6 °C 30.11in /  1019.5hPa Calm     76% 0.00in /  0mm 0 W/m2
23:29 80.7 °F /  27.1 °C 72.7 °F /  22.6 °C 30.11in /  1019.5hPa Calm     76.7% 0.00in /  0mm 0 W/m2
23:34 80.5 °F /  26.9 °C 72.6 °F /  22.6 °C 30.11in /  1019.5hPa Calm     76.9% 0.00in /  0mm 0 W/m2
23:39 80.4 °F /  26.9 °C 72.5 °F /  22.5 °C 30.11in /  1019.5hPa Calm     77% 0.00in /  0mm 0 W/m2
23:44 80.2 °F /  26.8 °C 72.5 °F /  22.5 °C 30.11in /  1019.5hPa Calm     77.4% 0.00in /  0mm 0 W/m2
23:49 80.1 °F /  26.7 °C 72.7 °F /  22.6 °C 30.11in /  1019.5hPa Calm     78% 0.00in /  0mm 0 W/m2
23:54 80 °F /  26.7 °C 72.5 °F /  22.5 °C 30.11in /  1019.5hPa Calm     78% 0.00in /  0mm 0 W/m2
23:59 79.9 °F /  26.6 °C 72.5 °F /  22.5 °C 30.11in /  1019.5hPa Calm     78.3% 0.00in /  0mm 0 W/m2
Hartford County Weather
Compliments of Weather Underground - 4 mb